Time;durP1;ratioP1;P1;durP2;ratioP2;P2;SDS_P1;SDS_P2;PMS_P1;PMS_P2;Temp;Humidity;BMP_temperature;BMP_pressure;BME280_temperature;BME280_humidity;BME280_pressure;Samples;Min_cycle;Max_cycle;Signal;HPM_P1;HPM_P2
2022/04/04 00:00:15;;;;;;;0.50;0.40;;;2.50;75.50;;;;;;5092625;28;20048;-69
2022/04/04 00:02:41;;;;;;;0.43;0.40;;;2.60;75.50;;;;;;5094347;28;20036;-70
2022/04/04 00:05:07;;;;;;;0.38;0.38;;;2.50;75.50;;;;;;5076329;28;20068;-70
2022/04/04 00:07:32;;;;;;;0.55;0.40;;;2.50;75.40;;;;;;5077482;28;20070;-69
2022/04/04 00:09:58;;;;;;;0.80;0.40;;;2.40;75.50;;;;;;5093680;28;20067;-69
2022/04/04 00:12:24;;;;;;;0.25;0.20;;;2.50;75.60;;;;;;5112268;28;20397;-70
2022/04/04 00:14:51;;;;;;;0.30;0.20;;;2.50;75.60;;;;;;5112173;28;20130;-70
2022/04/04 00:17:16;;;;;;;0.10;0.10;;;2.50;75.60;;;;;;5112516;28;20071;-70
2022/04/04 00:19:42;;;;;;;0.38;0.30;;;2.50;75.70;;;;;;5112610;28;20437;-70
2022/04/04 00:22:08;;;;;;;0.20;0.20;;;2.50;75.70;;;;;;5112157;28;20036;-69
2022/04/04 00:24:35;;;;;;;0.50;0.40;;;2.50;75.80;;;;;;5112024;28;20416;-69
2022/04/04 00:27:01;;;;;;;0.45;0.40;;;2.50;75.80;;;;;;5112271;28;20043;-70
2022/04/04 00:29:27;;;;;;;0.30;0.30;;;2.40;75.80;;;;;;5112231;28;20043;-70
2022/04/04 00:31:53;;;;;;;0.60;0.38;;;2.50;75.90;;;;;;5111793;28;20040;-70
2022/04/04 00:34:20;;;;;;;0.28;0.25;;;2.50;76.00;;;;;;5111678;28;20054;-69
2022/04/04 00:36:45;;;;;;;0.80;0.47;;;2.40;76.00;;;;;;5112209;28;20043;-70
2022/04/04 00:39:15;;;;;;;0.30;0.30;;;2.40;76.00;;;;;;5111617;28;20374;-70
2022/04/04 00:41:43;;;;;;;0.50;0.45;;;2.40;76.10;;;;;;5111903;28;20036;-69
2022/04/04 00:44:09;;;;;;;0.57;0.40;;;2.40;76.10;;;;;;5092187;28;20516;-69
2022/04/04 00:46:39;;;;;;;0.70;0.40;;;2.40;76.10;;;;;;5076712;28;20485;-70
2022/04/04 00:49:05;;;;;;;1.02;0.40;;;2.40;76.20;;;;;;5114528;28;20555;-70
2022/04/04 00:51:31;;;;;;;0.40;0.40;;;2.40;76.20;;;;;;5115406;28;20066;-70
2022/04/04 00:53:56;;;;;;;1.00;0.50;;;2.40;76.20;;;;;;5096737;28;20051;-70
2022/04/04 00:56:26;;;;;;;0.85;0.55;;;2.40;76.10;;;;;;5114773;28;20039;-70
2022/04/04 00:58:52;;;;;;;0.77;0.60;;;2.40;76.10;;;;;;5114957;28;20116;-70
2022/04/04 01:01:18;;;;;;;0.90;0.63;;;2.50;76.20;;;;;;5114784;28;20047;-70
2022/04/04 01:03:44;;;;;;;1.05;0.70;;;2.40;76.20;;;;;;5114496;28;20069;-70
2022/04/04 01:06:10;;;;;;;1.20;0.73;;;2.30;76.10;;;;;;5115023;28;20035;-70
2022/04/04 01:08:36;;;;;;;1.08;0.60;;;2.40;76.20;;;;;;5063466;28;20397;-70
2022/04/04 01:11:02;;;;;;;0.35;0.28;;;2.50;76.30;;;;;;5114820;28;20051;-70
2022/04/04 01:13:28;;;;;;;0.65;0.50;;;2.40;76.30;;;;;;5114633;28;20077;-70
2022/04/04 01:15:53;;;;;;;1.52;0.65;;;2.40;76.30;;;;;;5096463;28;20047;-70
2022/04/04 01:18:19;;;;;;;0.45;0.45;;;2.40;76.30;;;;;;5096608;28;20133;-70
2022/04/04 01:20:45;;;;;;;1.00;0.55;;;2.40;76.30;;;;;;5079385;28;20078;-70
2022/04/04 01:23:13;;;;;;;1.13;0.80;;;2.40;76.40;;;;;;5115241;28;20036;-70
2022/04/04 01:25:39;;;;;;;0.60;0.60;;;2.40;76.40;;;;;;5115143;28;20067;-70
2022/04/04 01:28:05;;;;;;;0.88;0.60;;;2.50;76.40;;;;;;5114821;28;20040;-70
2022/04/04 01:30:32;;;;;;;0.77;0.60;;;2.40;76.40;;;;;;5114306;28;20032;-70
2022/04/04 01:32:58;;;;;;;1.23;0.68;;;2.40;76.30;;;;;;5114500;28;20393;-70
2022/04/04 01:35:24;;;;;;;1.17;0.70;;;2.50;76.40;;;;;;5096843;28;20043;-70
2022/04/04 01:37:50;;;;;;;0.50;0.40;;;2.50;76.40;;;;;;5114270;28;20050;-70
2022/04/04 01:40:15;;;;;;;0.98;0.70;;;2.50;77.00;;;;;;5114335;28;20039;-70
2022/04/04 01:42:46;;;;;;;1.40;0.95;;;2.60;76.50;;;;;;5094221;28;20040;-70
2022/04/04 01:45:14;;;;;;;1.40;0.80;;;2.50;76.40;;;;;;5096681;28;20448;-70
2022/04/04 01:47:41;;;;;;;1.15;0.88;;;2.50;76.30;;;;;;5114076;28;20074;-70
2022/04/04 01:50:07;;;;;;;1.23;0.73;;;2.50;76.30;;;;;;5096387;28;20040;-70
2022/04/04 01:52:33;;;;;;;1.83;1.00;;;2.60;76.30;;;;;;5114189;28;20473;-70
2022/04/04 01:54:58;;;;;;;0.95;0.68;;;2.50;76.20;;;;;;5114229;28;20089;-70
2022/04/04 01:57:24;;;;;;;1.15;0.77;;;2.60;76.20;;;;;;5096594;28;20445;-69
2022/04/04 01:59:50;;;;;;;1.05;0.77;;;2.60;76.30;;;;;;5112907;28;20079;-69
2022/04/04 02:02:15;;;;;;;1.80;0.90;;;2.60;76.20;;;;;;5094198;28;20031;-69
2022/04/04 02:04:41;;;;;;;1.67;1.02;;;2.70;76.30;;;;;;5113868;28;20542;-69
2022/04/04 02:07:07;;;;;;;1.58;0.98;;;2.70;76.30;;;;;;5114426;28;20039;-70
2022/04/04 02:09:34;;;;;;;1.92;1.05;;;2.60;76.20;;;;;;5094374;28;20375;-70
2022/04/04 02:11:59;;;;;;;1.42;1.00;;;2.60;76.20;;;;;;5095763;28;20043;-70
2022/04/04 02:14:25;;;;;;;1.27;1.08;;;2.60;76.10;;;;;;5113811;28;20043;-70
2022/04/04 02:16:51;;;;;;;2.22;1.10;;;2.70;76.10;;;;;;5114173;28;20583;-70
2022/04/04 02:19:17;;;;;;;1.80;1.13;;;2.70;76.10;;;;;;5113629;28;20102;-70
2022/04/04 02:21:44;;;;;;;2.22;1.38;;;2.70;76.10;;;;;;5113581;28;20042;-70
2022/04/04 02:24:10;;;;;;;2.85;1.20;;;2.70;76.10;;;;;;5095288;28;20464;-70
2022/04/04 02:26:36;;;;;;;1.65;1.30;;;2.70;76.00;;;;;;5094920;28;20032;-70
2022/04/04 02:29:02;;;;;;;2.50;1.30;;;2.70;76.00;;;;;;5113273;28;20039;-70
2022/04/04 02:31:28;;;;;;;2.40;1.50;;;2.70;76.00;;;;;;5113596;28;20031;-70
2022/04/04 02:33:54;;;;;;;2.03;1.30;;;2.70;76.00;;;;;;5113760;28;20036;-70
2022/04/04 02:36:20;;;;;;;2.25;1.20;;;2.80;76.00;;;;;;5113855;28;20039;-70
2022/04/04 02:38:46;;;;;;;2.15;1.35;;;2.80;76.00;;;;;;5093248;28;20043;-69
2022/04/04 02:41:12;;;;;;;1.92;1.33;;;2.80;76.00;;;;;;5094620;28;20550;-69
2022/04/04 02:43:39;;;;;;;2.22;1.27;;;2.80;76.00;;;;;;5113545;28;20209;-70
2022/04/04 02:46:05;;;;;;;2.67;1.40;;;2.80;75.90;;;;;;5113174;28;20123;-70
2022/04/04 02:48:31;;;;;;;2.05;1.40;;;2.80;76.00;;;;;;5113428;28;20036;-69
2022/04/04 02:50:57;;;;;;;2.20;1.20;;;2.80;75.90;;;;;;5113503;28;20073;-70
2022/04/04 02:53:23;;;;;;;2.67;1.50;;;2.80;76.00;;;;;;5113162;28;20078;-70
2022/04/04 02:58:32;;;;;;;1.77;1.38;;;2.90;76.00;;;;;;5113118;28;20048;-69
2022/04/04 03:00:58;;;;;;;2.97;1.38;;;2.90;76.10;;;;;;5113133;28;20519;-70
2022/04/04 03:03:24;;;;;;;2.45;1.42;;;2.80;76.00;;;;;;5113545;28;20411;-69
2022/04/04 03:05:49;;;;;;;3.20;1.80;;;2.80;76.00;;;;;;5113047;28;20488;-69
2022/04/04 03:08:15;;;;;;;2.80;1.70;;;2.90;76.10;;;;;;5113400;28;20046;-69
2022/04/04 03:10:41;;;;;;;2.72;1.65;;;2.90;76.00;;;;;;5095010;28;20044;-70
2022/04/04 03:13:07;;;;;;;2.75;1.65;;;2.80;75.90;;;;;;5113189;28;20047;-70
2022/04/04 03:15:35;;;;;;;4.60;1.90;;;3.00;76.00;;;;;;5113097;28;20028;-69
2022/04/04 03:18:03;;;;;;;2.53;1.75;;;2.90;75.90;;;;;;5112890;28;20031;-70
2022/04/04 03:20:30;;;;;;;3.15;1.70;;;3.00;75.90;;;;;;5112690;28;20043;-70
2022/04/04 03:22:56;;;;;;;2.67;1.67;;;2.90;75.90;;;;;;5093792;28;20036;-69
2022/04/04 03:25:23;;;;;;;2.67;1.80;;;2.90;75.90;;;;;;5076053;28;20524;-70
2022/04/04 03:27:50;;;;;;;2.85;1.70;;;3.00;75.90;;;;;;5113076;28;20043;-70
2022/04/04 03:30:18;;;;;;;3.28;1.88;;;3.00;75.80;;;;;;5094357;28;20104;-70
2022/04/04 03:32:46;;;;;;;2.90;1.70;;;3.00;75.80;;;;;;5094407;28;20048;-69
2022/04/04 03:35:14;;;;;;;2.97;1.80;;;3.00;75.80;;;;;;5112517;28;20498;-69
2022/04/04 03:37:42;;;;;;;2.38;1.65;;;3.00;75.80;;;;;;5112572;28;20038;-69
2022/04/04 03:40:12;;;;;;;3.25;1.95;;;3.00;75.70;;;;;;5112469;28;20169;-70
2022/04/04 03:42:38;;;;;;;3.28;2.00;;;3.10;75.80;;;;;;5112515;28;20048;-69
2022/04/04 03:45:05;;;;;;;3.25;1.98;;;3.00;75.80;;;;;;5112812;28;20032;-70
2022/04/04 03:47:32;;;;;;;4.07;1.80;;;3.10;75.80;;;;;;5094823;28;20038;-70
2022/04/04 03:49:59;;;;;;;2.65;1.60;;;3.10;75.80;;;;;;5095033;28;20046;-69
2022/04/04 03:52:26;;;;;;;4.20;2.00;;;3.10;75.70;;;;;;5112288;28;20042;-69
2022/04/04 03:54:52;;;;;;;2.92;1.70;;;3.20;75.80;;;;;;5094598;28;20031;-70
2022/04/04 03:57:18;;;;;;;4.50;2.30;;;3.20;75.80;;;;;;5112364;28;20043;-70
2022/04/04 03:59:44;;;;;;;3.58;1.98;;;3.20;75.80;;;;;;5112400;28;20043;-70
2022/04/04 04:02:11;;;;;;;3.17;1.85;;;3.20;75.80;;;;;;5112640;28;20036;-69
2022/04/04 04:04:37;;;;;;;2.88;1.70;;;3.20;75.70;;;;;;5094341;28;20491;-69
2022/04/04 04:07:04;;;;;;;2.80;1.63;;;3.20;75.70;;;;;;5112515;28;20050;-69
2022/04/04 04:09:30;;;;;;;3.42;2.08;;;3.20;75.80;;;;;;5112253;28;20071;-69
2022/04/04 04:11:56;;;;;;;3.40;1.77;;;3.20;75.80;;;;;;5094144;28;20598;-69
2022/04/04 04:14:24;;;;;;;3.63;2.10;;;3.20;75.70;;;;;;5093746;28;20055;-69
2022/04/04 04:16:49;;;;;;;2.95;1.83;;;3.30;75.70;;;;;;5111923;28;20796;-69
2022/04/04 04:22:01;;;;;;;3.47;1.83;;;3.40;75.70;;;;;;5112166;28;20494;-69
2022/04/04 04:24:27;;;;;;;3.03;2.00;;;3.30;75.70;;;;;;5115376;28;20067;-69
2022/04/04 04:26:53;;;;;;;3.30;1.90;;;3.30;75.70;;;;;;5097219;28;20039;-69
2022/04/04 04:29:19;;;;;;;4.18;2.08;;;3.40;75.70;;;;;;5115709;28;20093;-69
2022/04/04 04:31:45;;;;;;;5.03;2.20;;;3.30;75.70;;;;;;5116075;28;20047;-69
2022/04/04 04:34:11;;;;;;;3.50;1.83;;;3.40;75.70;;;;;;5115593;28;20031;-69
2022/04/04 04:36:39;;;;;;;3.78;2.22;;;3.40;75.70;;;;;;5115315;28;20094;-69
2022/04/04 04:39:06;;;;;;;3.78;2.30;;;3.40;75.70;;;;;;5115421;28;20503;-69
2022/04/04 04:41:32;;;;;;;4.95;2.53;;;3.40;75.70;;;;;;5115252;28;20032;-69
2022/04/04 04:44:02;;;;;;;3.70;2.30;;;3.50;75.80;;;;;;5115472;28;20507;-69
2022/04/04 04:46:30;;;;;;;2.97;2.10;;;3.40;75.70;;;;;;5115365;28;20112;-71
2022/04/04 04:48:57;;;;;;;4.35;2.30;;;3.40;75.70;;;;;;5115324;28;20051;-69
2022/04/04 04:51:22;;;;;;;3.70;2.10;;;3.50;75.70;;;;;;5115282;28;20039;-69
2022/04/04 04:53:49;;;;;;;5.22;2.40;;;3.60;75.80;;;;;;5115582;28;20487;-70
2022/04/04 04:56:14;;;;;;;5.60;2.25;;;3.60;75.70;;;;;;5115494;28;20071;-69
2022/04/04 04:58:40;;;;;;;4.43;2.22;;;3.60;75.60;;;;;;5096425;28;20066;-69
2022/04/04 05:01:06;;;;;;;3.15;1.83;;;3.70;75.70;;;;;;5115492;28;20074;-70
2022/04/04 05:03:33;;;;;;;4.63;2.30;;;3.70;75.50;;;;;;5097352;28;20115;-70
2022/04/04 05:05:59;;;;;;;3.90;2.17;;;3.70;75.60;;;;;;5096816;28;20449;-69
2022/04/04 05:08:25;;;;;;;5.82;2.42;;;3.70;75.50;;;;;;5096877;28;20047;-70
2022/04/04 05:10:52;;;;;;;4.93;2.60;;;3.80;75.50;;;;;;5115542;28;20040;-70
2022/04/04 05:13:18;;;;;;;3.70;2.42;;;3.90;75.60;;;;;;5114841;28;20053;-70
2022/04/04 05:15:44;;;;;;;4.35;2.40;;;3.90;76.10;;;;;;5115582;28;20044;-70
2022/04/04 05:18:10;;;;;;;4.38;2.42;;;3.90;75.50;;;;;;5115407;28;20559;-70
2022/04/04 05:20:36;;;;;;;4.03;2.20;;;3.90;75.40;;;;;;5114722;28;20051;-70
2022/04/04 05:23:02;;;;;;;5.05;2.50;;;3.90;75.30;;;;;;5115173;28;20123;-70
2022/04/04 05:25:28;;;;;;;3.70;2.38;;;4.00;75.40;;;;;;5096103;28;20396;-70
2022/04/04 05:27:56;;;;;;;5.22;2.83;;;4.00;75.40;;;;;;5096310;28;20043;-70
2022/04/04 05:30:22;;;;;;;6.00;3.10;;;4.10;75.40;;;;;;5114432;28;20043;-70
2022/04/04 05:32:49;;;;;;;4.43;2.67;;;4.10;75.30;;;;;;5114571;28;20039;-69
2022/04/04 05:35:16;;;;;;;6.95;2.33;;;4.10;75.30;;;;;;5115031;28;20027;-70
2022/04/04 05:37:42;;;;;;;4.45;2.40;;;4.20;75.20;;;;;;5114499;28;20043;-70
2022/04/04 05:40:09;;;;;;;4.22;2.50;;;4.20;75.10;;;;;;5114875;28;20039;-69
2022/04/04 05:42:35;;;;;;;4.50;2.08;;;4.40;75.30;;;;;;5114414;28;20043;-70
2022/04/04 05:45:01;;;;;;;4.47;2.30;;;4.30;75.20;;;;;;5096260;28;20035;-70
2022/04/04 05:47:27;;;;;;;4.78;2.65;;;4.40;75.20;;;;;;5114439;28;20072;-70
2022/04/04 05:49:53;;;;;;;4.75;2.70;;;4.40;75.10;;;;;;5114969;28;20492;-70
2022/04/04 05:52:23;;;;;;;4.90;2.88;;;4.50;75.10;;;;;;5114253;28;20047;-70
2022/04/04 05:54:57;;;;;;;5.20;2.78;;;4.50;75.00;;;;;;5114258;28;20038;-70
2022/04/04 05:57:26;;;;;;;5.00;2.92;;;4.60;75.00;;;;;;5114687;28;20063;-70
2022/04/04 05:59:53;;;;;;;5.53;2.80;;;4.60;74.90;;;;;;5096352;28;20058;-71
2022/04/04 06:02:19;;;;;;;4.97;2.58;;;4.60;75.50;;;;;;5114187;28;20036;-70
2022/04/04 06:04:45;;;;;;;5.35;2.92;;;4.70;74.90;;;;;;5114474;28;20066;-70
2022/04/04 06:07:11;;;;;;;4.70;2.78;;;4.70;74.90;;;;;;5113827;28;20040;-70
2022/04/04 06:09:37;;;;;;;5.50;2.90;;;4.80;74.90;;;;;;5114535;28;20040;-70
2022/04/04 06:12:03;;;;;;;4.93;2.60;;;4.70;74.80;;;;;;5113914;28;20070;-70
2022/04/04 06:14:29;;;;;;;5.70;3.25;;;4.80;74.70;;;;;;5114027;28;20043;-70
2022/04/04 06:16:55;;;;;;;4.40;2.63;;;4.80;74.70;;;;;;5113906;28;20062;-70
2022/04/04 06:19:21;;;;;;;5.50;2.83;;;4.90;74.70;;;;;;5113533;28;20400;-70
2022/04/04 06:21:47;;;;;;;6.05;3.28;;;4.90;74.70;;;;;;5113652;28;20436;-70
2022/04/04 06:24:13;;;;;;;5.97;3.00;;;4.90;74.60;;;;;;5113875;28;20061;-70
2022/04/04 06:26:39;;;;;;;4.22;2.80;;;5.00;74.60;;;;;;5114189;28;20039;-69
2022/04/04 06:29:09;;;;;;;5.32;2.90;;;4.90;74.40;;;;;;5095292;28;20481;-70
2022/04/04 06:31:36;;;;;;;4.70;2.95;;;5.10;74.40;;;;;;5113698;28;20032;-70
2022/04/04 06:34:04;;;;;;;5.60;2.70;;;5.10;74.30;;;;;;5113517;28;20031;-70
2022/04/04 06:36:30;;;;;;;5.25;2.80;;;5.20;74.20;;;;;;5114207;28;20039;-70
2022/04/04 06:38:56;;;;;;;5.13;2.88;;;5.20;74.10;;;;;;5060324;28;20074;-69
2022/04/04 06:41:23;;;;;;;5.38;3.05;;;5.30;74.10;;;;;;5078407;28;20075;-69
2022/04/04 06:43:50;;;;;;;5.40;2.90;;;5.30;74.00;;;;;;5060873;28;20051;-70
2022/04/04 06:46:16;;;;;;;6.50;2.90;;;5.30;73.80;;;;;;5053897;28;20131;-69
2022/04/04 06:48:42;;;;;;;4.88;2.75;;;5.40;73.80;;;;;;5070974;28;20041;-69
2022/04/04 06:51:09;;;;;;;5.15;3.03;;;5.50;73.80;;;;;;5070933;28;20127;-71
2022/04/04 06:53:35;;;;;;;5.25;2.80;;;5.50;73.80;;;;;;5027153;28;20155;-68
2022/04/04 06:56:01;;;;;;;5.05;3.00;;;5.50;73.60;;;;;;5070447;28;20102;-71
2022/04/04 06:58:27;;;;;;;5.63;3.08;;;5.60;73.60;;;;;;5071064;28;20068;-71
2022/04/04 07:00:53;;;;;;;6.45;3.50;;;5.60;73.50;;;;;;5070735;28;20133;-71
2022/04/04 07:03:18;;;;;;;5.65;3.20;;;5.70;73.50;;;;;;5053572;28;20040;-71
2022/04/04 07:05:44;;;;;;;5.28;3.30;;;5.80;73.40;;;;;;5070785;28;20032;-71
2022/04/04 07:08:10;;;;;;;5.60;3.00;;;5.70;73.20;;;;;;5053445;28;20068;-70
2022/04/04 07:10:37;;;;;;;4.93;3.10;;;5.80;73.30;;;;;;5070591;28;20489;-71
2022/04/04 07:13:05;;;;;;;5.60;2.92;;;5.80;73.20;;;;;;5070071;28;20044;-69
2022/04/04 07:15:32;;;;;;;5.78;2.80;;;5.90;73.20;;;;;;5070154;28;20075;-70
2022/04/04 07:17:58;;;;;;;5.22;2.80;;;5.90;73.10;;;;;;5067387;28;20085;-71
2022/04/04 07:20:24;;;;;;;4.00;2.45;;;6.00;73.00;;;;;;5112619;28;20039;-70
2022/04/04 07:22:50;;;;;;;4.63;2.85;;;6.00;72.80;;;;;;5060949;28;20096;-70
2022/04/04 07:25:16;;;;;;;5.80;3.00;;;6.10;72.70;;;;;;5092923;28;20044;-70
2022/04/04 07:27:44;;;;;;;5.18;2.88;;;6.10;72.60;;;;;;5113148;28;20039;-70
2022/04/04 07:30:13;;;;;;;5.05;3.15;;;6.20;72.50;;;;;;5077637;28;20051;-71
2022/04/04 07:32:40;;;;;;;5.07;3.05;;;6.30;72.50;;;;;;5113118;28;20488;-70
2022/04/04 07:35:11;;;;;;;4.38;2.92;;;6.30;72.40;;;;;;5112485;28;20431;-70
2022/04/04 07:37:44;;;;;;;8.37;3.23;;;6.30;72.30;;;;;;5094434;28;20050;-70
2022/04/04 07:40:13;;;;;;;4.47;2.72;;;6.50;72.40;;;;;;5112451;28;20463;-70
2022/04/04 07:42:40;;;;;;;5.25;3.00;;;6.50;72.30;;;;;;5112289;28;20039;-72
2022/04/04 07:45:08;;;;;;;5.60;3.10;;;6.50;72.30;;;;;;5112458;28;20044;-70
2022/04/04 07:47:34;;;;;;;4.90;2.97;;;6.50;72.30;;;;;;5112461;28;20115;-71
2022/04/04 07:50:00;;;;;;;6.20;3.75;;;6.40;72.30;;;;;;5112389;28;20035;-70
2022/04/04 07:52:27;;;;;;;5.47;3.70;;;6.50;72.40;;;;;;5095032;28;20096;-70
2022/04/04 07:54:54;;;;;;;6.57;3.95;;;6.50;72.60;;;;;;5112492;28;20496;-70
2022/04/04 07:57:21;;;;;;;5.35;3.33;;;6.50;72.70;;;;;;5112757;28;20093;-70
2022/04/04 07:59:47;;;;;;;5.97;3.90;;;6.40;72.90;;;;;;5095313;28;20044;-71
2022/04/04 08:02:13;;;;;;;5.10;3.55;;;6.50;73.10;;;;;;5116051;28;20093;-70
2022/04/04 08:04:38;;;;;;;7.93;3.85;;;6.40;73.30;;;;;;5115993;28;20040;-70
2022/04/04 08:07:05;;;;;;;5.70;3.50;;;6.40;73.50;;;;;;5115859;28;20084;-72
2022/04/04 08:09:31;;;;;;;7.88;3.67;;;6.40;73.60;;;;;;5097071;28;20051;-70
2022/04/04 08:11:57;;;;;;;5.95;3.70;;;6.40;73.70;;;;;;5115792;28;20035;-71
2022/04/04 08:14:23;;;;;;;7.00;3.72;;;6.40;73.90;;;;;;5096141;28;20036;-73
2022/04/04 08:16:50;;;;;;;6.28;3.95;;;6.40;74.20;;;;;;5115743;28;20110;-72
2022/04/04 08:19:17;;;;;;;5.63;3.28;;;6.40;74.40;;;;;;5097082;28;20051;-71
2022/04/04 08:21:44;;;;;;;6.60;3.42;;;6.30;74.40;;;;;;5115348;28;20127;-70
2022/04/04 08:24:11;;;;;;;5.40;3.05;;;6.30;74.60;;;;;;5115860;28;20105;-69
2022/04/04 08:26:38;;;;;;;5.50;3.42;;;6.40;74.70;;;;;;5115276;28;20067;-71
2022/04/04 08:29:03;;;;;;;8.38;4.22;;;6.40;74.70;;;;;;5080025;28;20032;-72
2022/04/04 08:31:29;;;;;;;6.72;4.20;;;6.40;74.90;;;;;;5115282;28;20507;-70
2022/04/04 08:33:55;;;;;;;6.85;4.22;;;6.30;75.00;;;;;;5115334;28;20031;-70
2022/04/04 08:36:20;;;;;;;6.97;4.15;;;6.30;75.10;;;;;;5097027;28;20039;-70
2022/04/04 08:38:46;;;;;;;6.20;3.85;;;6.40;75.20;;;;;;5096839;28;20503;-70
2022/04/04 08:41:12;;;;;;;7.10;4.15;;;6.40;75.30;;;;;;5115453;28;20055;-71
2022/04/04 08:43:43;;;;;;;6.18;4.00;;;6.40;75.20;;;;;;5115516;28;20048;-71
2022/04/04 08:46:09;;;;;;;6.20;3.63;;;6.40;75.20;;;;;;5115446;28;20047;-70
2022/04/04 08:48:37;;;;;;;7.13;4.43;;;6.50;75.20;;;;;;5080133;28;20505;-70
2022/04/04 08:51:04;;;;;;;7.57;4.40;;;6.50;75.20;;;;;;5097202;28;20040;-70
2022/04/04 08:53:30;;;;;;;7.85;4.50;;;6.50;75.10;;;;;;5115338;28;20105;-71
2022/04/04 08:55:57;;;;;;;5.88;3.70;;;6.60;75.00;;;;;;5095436;28;20051;-71
2022/04/04 08:58:24;;;;;;;8.30;4.13;;;6.70;75.00;;;;;;5115193;28;20040;-71
2022/04/04 09:00:50;;;;;;;6.30;3.92;;;6.70;74.90;;;;;;5080026;28;20075;-72
2022/04/04 09:03:29;;;;;;;7.18;4.38;;;6.70;74.80;;;;;;5097457;28;20066;-73
2022/04/04 09:05:57;;;;;;;5.28;3.50;;;6.70;74.90;;;;;;5081094;28;20092;-71
2022/04/04 09:08:25;;;;;;;9.95;5.10;;;6.70;74.90;;;;;;5095971;28;20061;-71
2022/04/04 09:10:55;;;;;;;7.55;4.80;;;6.70;74.90;;;;;;5080085;28;20052;-72
2022/04/04 09:13:22;;;;;;;6.07;4.38;;;6.70;75.00;;;;;;5114759;28;20051;-71
2022/04/04 09:15:59;;;;;;;7.57;4.63;;;6.70;75.10;;;;;;5096592;28;20058;-71
2022/04/04 09:18:45;;;;;;;7.25;4.57;;;6.70;75.40;;;;;;5096658;28;20065;-71
2022/04/04 09:21:31;;;;;;;6.70;4.10;;;6.50;75.60;;;;;;5097242;28;20043;-70
2022/04/04 09:24:02;;;;;;;6.82;3.97;;;6.50;75.90;;;;;;5114888;28;20043;-71
2022/04/04 09:26:44;;;;;;;7.75;4.35;;;6.50;76.10;;;;;;5096599;28;20147;-71
2022/04/04 09:29:17;;;;;;;5.90;3.80;;;6.40;76.40;;;;;;5096517;28;20034;-71
2022/04/04 09:32:05;;;;;;;6.20;3.95;;;6.30;76.60;;;;;;5114505;28;20097;-71
2022/04/04 09:34:50;;;;;;;5.93;3.40;;;6.30;76.90;;;;;;5114490;28;20106;-71
2022/04/04 09:37:17;;;;;;;6.10;3.72;;;6.30;77.70;;;;;;5094718;28;20036;-71
2022/04/04 09:39:43;;;;;;;5.40;3.40;;;6.30;77.20;;;;;;5079353;28;20188;-70
2022/04/04 09:42:17;;;;;;;6.35;3.60;;;6.30;77.30;;;;;;5114292;28;20504;-73
2022/04/04 09:44:59;;;;;;;6.03;4.15;;;6.30;77.50;;;;;;5077256;28;20036;-73
2022/04/04 09:47:57;;;;;;;8.40;3.78;;;6.10;77.70;;;;;;5079203;28;20044;-71
2022/04/04 09:50:44;;;;;;;8.48;4.63;;;6.20;78.00;;;;;;5114133;28;20046;-71
2022/04/04 09:53:14;;;;;;;5.80;3.97;;;6.10;78.30;;;;;;5114804;28;20051;-72
2022/04/04 09:55:43;;;;;;;5.93;3.42;;;6.10;78.40;;;;;;5096024;28;20100;-70
2022/04/04 09:58:12;;;;;;;5.93;3.40;;;6.10;78.50;;;;;;5079164;28;20485;-70
2022/04/04 10:00:39;;;;;;;7.18;3.95;;;6.10;78.60;;;;;;5079193;28;20050;-69
2022/04/04 10:03:12;;;;;;;5.97;3.97;;;6.10;78.70;;;;;;5096208;28;20028;-70
2022/04/04 10:05:47;;;;;;;7.97;3.97;;;6.10;78.90;;;;;;5096704;28;20035;-72
2022/04/04 10:08:15;;;;;;;5.35;3.78;;;6.20;79.00;;;;;;5097718;28;20120;-70
2022/04/04 10:10:42;;;;;;;5.93;3.85;;;6.10;79.00;;;;;;5096142;28;20050;-69
2022/04/04 10:13:12;;;;;;;6.55;3.60;;;6.10;79.10;;;;;;5113963;28;20031;-70
2022/04/04 10:15:38;;;;;;;6.20;3.70;;;6.20;79.20;;;;;;5095737;28;20047;-71
2022/04/04 10:18:05;;;;;;;5.50;3.75;;;6.10;79.40;;;;;;5114041;28;20039;-70
2022/04/04 10:20:30;;;;;;;5.90;3.97;;;6.10;79.60;;;;;;5094899;28;20043;-70
2022/04/04 10:22:57;;;;;;;5.95;4.03;;;6.10;79.90;;;;;;5095035;28;20474;-70
2022/04/04 10:25:26;;;;;;;6.45;3.72;;;6.10;79.90;;;;;;5114003;28;20027;-71
2022/04/04 10:27:52;;;;;;;6.05;3.38;;;6.10;79.90;;;;;;5113824;28;20602;-72
2022/04/04 10:30:29;;;;;;;5.47;3.60;;;6.10;80.00;;;;;;5114047;28;20042;-70
2022/04/04 10:32:55;;;;;;;6.05;3.95;;;6.20;80.20;;;;;;5113841;28;20053;-70
2022/04/04 10:35:23;;;;;;;5.60;3.90;;;6.10;80.30;;;;;;5095707;28;20051;-71
2022/04/04 10:37:50;;;;;;;6.35;4.30;;;6.20;80.50;;;;;;5114339;28;20039;-71
2022/04/04 10:40:22;;;;;;;6.45;4.53;;;6.20;80.90;;;;;;5095518;28;20116;-72
2022/04/04 10:43:02;;;;;;;6.30;4.13;;;6.30;81.10;;;;;;5113475;28;20110;-72
2022/04/04 10:45:30;;;;;;;5.63;3.72;;;6.20;81.10;;;;;;5113637;28;20028;-71
2022/04/04 10:48:06;;;;;;;5.43;3.63;;;6.20;81.10;;;;;;5113513;28;20085;-71
2022/04/04 10:50:33;;;;;;;5.38;3.58;;;6.20;81.00;;;;;;5095768;28;20039;-70
2022/04/04 10:53:03;;;;;;;5.43;3.50;;;6.20;81.20;;;;;;5113777;28;20514;-70
2022/04/04 10:55:43;;;;;;;4.47;3.00;;;6.20;81.30;;;;;;5113284;28;20039;-69
2022/04/04 10:58:19;;;;;;;5.68;3.63;;;6.30;81.50;;;;;;5096407;28;20040;-70
2022/04/04 11:01:09;;;;;;;6.70;3.30;;;6.30;81.50;;;;;;5079487;28;20108;-69
2022/04/04 11:03:39;;;;;;;5.63;3.15;;;6.20;81.60;;;;;;5094918;28;20055;-71
2022/04/04 11:09:18;;;;;;;6.32;3.30;;;6.20;82.20;;;;;;5113137;28;20043;-71
2022/04/04 11:11:49;;;;;;;4.88;3.30;;;6.20;81.70;;;;;;5113312;28;20031;-70
2022/04/04 11:14:19;;;;;;;4.33;3.20;;;6.30;81.80;;;;;;5113050;28;20035;-69
2022/04/04 11:17:23;;;;;;;5.15;3.10;;;6.20;81.90;;;;;;5077440;28;20134;-69
2022/04/04 11:20:10;;;;;;;4.65;3.13;;;6.30;82.10;;;;;;5113153;28;20035;-69
2022/04/04 11:22:46;;;;;;;5.97;3.63;;;6.30;82.10;;;;;;5096646;28;20035;-71
2022/04/04 11:25:15;;;;;;;5.47;3.20;;;6.30;82.30;;;;;;5113060;28;20046;-70
2022/04/04 11:27:41;;;;;;;5.38;3.33;;;6.30;82.30;;;;;;5112996;28;20118;-71
2022/04/04 11:30:09;;;;;;;4.78;2.88;;;6.30;82.30;;;;;;5077482;28;20067;-71
2022/04/04 11:32:40;;;;;;;4.25;2.72;;;6.30;82.20;;;;;;5112733;28;20050;-71
2022/04/04 11:35:27;;;;;;;6.47;2.88;;;6.40;82.30;;;;;;5112851;28;20040;-72
2022/04/04 11:37:59;;;;;;;5.28;2.70;;;6.40;82.40;;;;;;5112704;28;20180;-70
2022/04/04 11:40:29;;;;;;;4.70;2.85;;;6.40;82.40;;;;;;5113211;28;20082;-69
2022/04/04 11:43:16;;;;;;;3.75;2.70;;;6.40;82.50;;;;;;5112909;28;20497;-69
2022/04/04 11:45:43;;;;;;;3.67;2.67;;;6.40;82.70;;;;;;5112805;28;20184;-70
2022/04/04 11:48:13;;;;;;;5.45;2.88;;;6.50;82.70;;;;;;5077433;28;20031;-69
2022/04/04 11:50:39;;;;;;;5.88;3.40;;;6.50;82.80;;;;;;5112605;28;20047;-70
2022/04/04 11:53:10;;;;;;;5.07;3.22;;;6.40;82.80;;;;;;5113161;28;20046;-70
2022/04/04 11:55:39;;;;;;;5.00;3.30;;;6.50;82.90;;;;;;5112860;28;20046;-70
2022/04/04 11:58:20;;;;;;;5.43;3.42;;;6.50;83.10;;;;;;5093302;28;20127;-70
2022/04/04 12:00:55;;;;;;;6.28;3.20;;;6.50;83.10;;;;;;5096230;28;20138;-69
2022/04/04 12:03:23;;;;;;;4.60;3.35;;;6.50;83.20;;;;;;5093107;28;20044;-71
2022/04/04 12:05:50;;;;;;;5.45;3.42;;;6.50;83.40;;;;;;5112199;28;20072;-70
2022/04/04 12:08:17;;;;;;;4.40;2.90;;;6.40;83.50;;;;;;5112398;28;20085;-70
2022/04/04 12:10:46;;;;;;;4.55;3.10;;;6.40;83.50;;;;;;5112188;28;20123;-70
2022/04/04 12:13:19;;;;;;;4.65;2.83;;;6.50;83.70;;;;;;5112779;28;20393;-69
2022/04/04 12:15:46;;;;;;;5.07;3.05;;;6.50;83.80;;;;;;5094373;28;20047;-69
2022/04/04 12:18:20;;;;;;;3.72;2.65;;;6.50;83.80;;;;;;5112986;28;20032;-70
2022/04/04 12:20:48;;;;;;;5.10;2.88;;;6.60;83.90;;;;;;5094088;28;20044;-69
2022/04/04 12:25:58;;;;;;;4.95;3.10;;;6.50;84.10;;;;;;5096041;28;20047;-69
2022/04/04 12:28:26;;;;;;;5.32;3.00;;;6.50;84.30;;;;;;5112055;28;20040;-68
2022/04/04 12:30:53;;;;;;;5.13;2.78;;;6.50;84.30;;;;;;5112326;28;20048;-68
2022/04/04 12:33:19;;;;;;;4.60;2.45;;;6.50;84.30;;;;;;5093958;28;20047;-68
2022/04/04 12:35:46;;;;;;;3.55;2.28;;;6.60;84.40;;;;;;5112414;28;20093;-68
2022/04/04 12:38:31;;;;;;;2.90;2.00;;;6.60;84.40;;;;;;5111907;28;20046;-69
2022/04/04 12:41:13;;;;;;;3.20;1.90;;;6.60;84.40;;;;;;5111655;28;20504;-68
2022/04/04 12:43:42;;;;;;;2.95;1.90;;;6.60;84.40;;;;;;5112440;28;20043;-68
2022/04/04 12:46:23;;;;;;;2.88;2.00;;;6.60;84.40;;;;;;5115636;28;20593;-68
2022/04/04 12:48:49;;;;;;;3.47;2.47;;;6.60;84.60;;;;;;5115108;28;20039;-69
2022/04/04 12:51:29;;;;;;;3.47;2.40;;;6.60;84.60;;;;;;5097114;28;20064;-69
2022/04/04 12:53:56;;;;;;;3.63;2.40;;;6.60;84.80;;;;;;5095961;28;20032;-69
2022/04/04 12:56:23;;;;;;;3.85;2.38;;;6.60;84.80;;;;;;5115856;28;20042;-70
2022/04/04 12:59:03;;;;;;;3.25;2.40;;;6.60;84.90;;;;;;5115171;28;20040;-69
2022/04/04 13:01:29;;;;;;;4.45;2.47;;;6.60;85.00;;;;;;5115303;28;20100;-70
2022/04/04 13:03:55;;;;;;;3.25;2.10;;;6.60;85.00;;;;;;5115215;28;20039;-69
2022/04/04 13:06:22;;;;;;;2.78;2.00;;;6.60;85.10;;;;;;5115314;28;20123;-70
2022/04/04 13:08:59;;;;;;;3.65;2.10;;;6.60;85.10;;;;;;5097437;28;20040;-70
2022/04/04 13:11:26;;;;;;;3.70;2.33;;;6.60;85.20;;;;;;5115309;28;20044;-70
2022/04/04 13:14:00;;;;;;;2.67;2.20;;;6.60;85.30;;;;;;5079842;28;20050;-69